NCAR-RAP Real-Time Weather Data

Output produced by METARs form (24 April 2018  16:25 UTC)
found at http://weather.rap.ucar.edu/surface/
 
RJFF 241603Z AUTO 35008KT 4900 -RA BR SCT009 OVC010 14/12 Q1007 RMK A2975
RJFF 241600Z AUTO 35008KT 6000 SCT009 OVC010 14/12 Q1007 RMK A2975
RJFF 241530Z AUTO 01010KT 9999 FEW009 OVC011 14/12 Q1007 RMK A2975
RJFF 241527Z AUTO 01009KT 9999 FEW009 OVC011 14/12 Q1007 RMK A2975
RJFF 241516Z AUTO 36007KT 320V030 9999 OVC009 14/12 Q1007 RMK A2975
RJFF 241500Z AUTO 01008KT 330V040 9999 -RA OVC010 14/12 Q1007 RMK A2974
RJFF 241430Z AUTO 36009KT 9999 OVC010 14/12 Q1007 RMK A2976
RJFF 241423Z AUTO 36011KT 9999 OVC010 14/12 Q1007 RMK A2976
RJFF 241417Z AUTO 36012KT 9000 -RA BKN009 OVC010 14/12 Q1007 RMK A2976
RJFF 241400Z AUTO 35011KT 6000 -RA OVC011 14/12 Q1008 RMK A2977
RJFF 241330Z 35012KT 9999 -SHRA FEW005 SCT010 BKN015 14/12 Q1008 RMK 1ST005 4ST010 5CU015 A2977
RJFF 241300Z 35013KT 9999 FEW005 SCT010 BKN015 14/12 Q1008 RMK 1ST005 4ST010 5CU015 A2977
RJFF 241230Z 01010KT 330V040 9999 -SHRA FEW005 SCT010 BKN015 14/12 Q1007 RMK 1ST005 4ST010 5CU015 A2976
RJFF 241200Z 36013G23KT 6000 -SHRA FEW005 SCT008 BKN010 14/12 Q1007 RMK 1ST005 4ST008 5ST010 A2976
RJFF 241130Z 36013KT 9999 -SHRA FEW005 BKN010 BKN015 14/12 Q1007 RMK 1ST005 5ST010 6CU015 A2975
RJFF 241115Z 35012KT 8000 -SHRA FEW005 SCT008 BKN010 14/13 Q1007 RMK 1ST005 3ST008 5ST010 A2975
RJFF 241100Z 35011KT 4000 -SHRA BR FEW003 SCT007 BKN009 14/13 Q1007 RMK 1ST003 3ST007 5ST009 A2974
RJFF 241030Z 35012KT 320V020 4000 -SHRA BR FEW005 SCT007 BKN009 15/13 Q1006 RMK 1ST005 3ST007 5ST009 A2973
RJFF 241026Z 34012KT 4000 -SHRA BR FEW005 SCT007 BKN009 15/13 Q1006 RMK 1ST005 3ST007 5ST009 A2973
RJFF 241000Z 35012KT 7000 -SHRA FEW005 SCT008 BKN009 15/13 Q1006 RMK 1ST005 3ST008 5ST009 A2972
RJFF 240930Z 34010KT 7000 -SHRA FEW005 SCT007 BKN009 15/13 Q1005 RMK 1ST005 3ST007 5ST009 A2970
RJFF 240900Z 34011KT 7000 -SHRA FEW005 SCT007 BKN010 15/13 Q1005 RMK 1ST005 3ST007 6ST010 A2969
RJFF 240830Z 34011KT 7000 -SHRA FEW005 SCT008 BKN010 16/14 Q1005 RMK 1ST005 3ST008 6ST010 A2968
RJFF 240800Z 34009KT 310V020 6000 -SHRA FEW005 SCT008 BKN010 16/14 Q1005 RMK 1ST005 3ST008 5ST010 A2968
RJFF 240730Z 35009KT 8000 -SHRA FEW003 BKN007 BKN009 16/14 Q1005 RMK 1ST003 6ST007 7ST009 A2969
RJFF 240700Z 34012KT 8000 -SHRA FEW003 BKN006 BKN009 16/14 Q1005 RMK 1ST003 5ST006 7ST009 A2969
RJFF 240630Z 34011KT 6000 -SHRA FEW003 BKN005 BKN009 16/14 Q1005 RMK 1ST003 6ST005 7ST009 A2969
RJFF 240611Z 34010KT 5000 -SHRA BR FEW003 BKN005 BKN009 16/14 Q1005 RMK 1ST003 6ST005 7ST009 A2970
RJFF 240600Z 34009KT 4500 -SHRA BR FEW003 BKN005 BKN008 16/15 Q1005 RMK 1ST003 6ST005 7ST008 A2970
RJFF 240530Z 34012KT 4500 -SHRA BR FEW003 BKN005 BKN008 16/15 Q1005 RMK 1ST003 6ST005 7ST008 A2969
RJFF 240500Z 32011KT 7000 -SHRA FEW003 BKN005 BKN009 17/15 Q1005 RMK 1ST003 6ST005 7ST009 A2969
RJFF 240448Z 31010KT 6000 -SHRA FEW003 BKN005 BKN009 17/16 Q1005 RMK 1ST003 5ST005 6ST009 A2969
RJFF 240442Z 31010KT 4500 R34/1400VP2000U SHRA BR FEW003 BKN005 BKN009 17/16 Q1005 RMK 1ST003 5ST005 6ST009 A2969
RJFF 240438Z 31009KT 4500 R34/1100VP2000U SHRA BR FEW003 BKN005 BKN009 17/16 Q1005 RMK 1ST003 5ST005 6ST009 A2969
RJFF 240430Z 31009KT 2000 R34/1100VP2000D SHRA BR FEW003 BKN005 BKN007 17/16 Q1005
RJFF 240422Z 31009KT 2500 R34/1500VP2000D SHRA BR FEW003 BKN005 BKN007 18/17 Q1005 RMK 1ST003 6ST005 7ST007 A2968
RJFF 240418Z 31008KT 3500 R34/2000N SHRA BR FEW003 BKN005 BKN008 18/16 Q1005 RMK 1ST003 6ST005 7CU008 A2968
RJFF 240406Z 31009KT 4000 R34/2000N -SHRA BR FEW003 BKN005 BKN015 18/16 Q1005 RMK 1ST003 6ST005 7CU015 A2968
RJFF 240400Z 31009KT 6000 -SHRA FEW003 BKN005 BKN015 18/16 Q1005 RMK 1ST003 5ST005 6CU015 A2968
RJFF 240349Z 31009KT 6000 R34/1100VP2000U -SHRA FEW003 BKN005 BKN015 19/17 Q1005 RMK 1ST003 5ST005 6CU015 A2968
RJFF 240345Z 30009KT 5000 R34/1100VP2000U -SHRA BR FEW003 SCT005 BKN015 19/17 Q1005 RMK 1ST003 4ST005 6CU015 A2968
RJFF 240341Z 30010KT 4000 R34/1100VP2000D SHRA BR FEW005 SCT007 BKN015 19/17 Q1005 RMK 1ST005 3ST007 6CU015 A2968
RJFF 240339Z 30011KT 4000 R34/1100VP2000D SHRA BR FEW005 SCT015 BKN025 19/17 Q1005 RMK 1ST005 4CU015 6CU025 A2968
RJFF 240337Z 30011KT 4000 R34/1200VP2000D SHRA BR FEW005 SCT015 BKN025 19/17 Q1005 RMK 1ST005 4CU015 6CU025 A2968
RJFF 240332Z 30010KT 250V320 4000 R34/1400VP2000N SHRA BR FEW005 SCT015 BKN025 19/17 Q1005 RMK 1ST005 4CU015 6CU025 A2968
RJFF 240330Z 29009KT 250V320 6000 R16/2000N SHRA FEW005 SCT015 BKN035 19/17 Q1005 RMK 1ST005 3CU015 5CU035 A2968
RJFF 240323Z 29010KT 250V310 8000 -SHRA FEW005 SCT020 BKN035 21/19 Q1005 RMK 1ST005 3CU020 5CU035 A2968
RJFF 240321Z 22009KT 170V260 8000 -SHRA FEW005 SCT020 BKN035 21/19 Q1004 RMK 1ST005 3CU020 5CU035 A2967
RJFF 240300Z 16013KT 9999 -SHRA FEW005 SCT020 BKN035 21/19 Q1004 RMK 1ST005 3CU020 5CU035 A2966
RJFF 240230Z 14012KT 9999 -SHRA FEW008 SCT030 BKN040 21/19 Q1005 RMK 1ST008 3CU030 5CU040 A2968
RJFF 240200Z 17009KT 110V200 9999 -SHRA FEW008 SCT020 BKN040 20/18 Q1005 RMK 1ST008 3CU020 5CU040 A2969
RJFF 240130Z 12004KT 070V170 8000 -SHRA FEW008 SCT020 BKN040 19/18 Q1005 RMK 1ST008 3CU020 5CU040 A2970
RJFF 240122Z 12005KT 8000 -SHRA FEW010 SCT020 BKN040 19/17 Q1006 RMK 1ST010 3CU020 5CU040 A2971
RJFF 240100Z 17007KT 5000 SHRA BR FEW010 BKN020 BKN025 19/17 Q1006 RMK 1ST010 5CU020 6CU025 A2972
RJFF 240048Z VRB03KT 2000 R16/0900VP2000D +SHRA BR FEW010 BKN020 BKN025 19/17 Q1006 RMK 1ST010 5CU020 6CU025 A2972
RJFF 240045Z 28004KT 170V340 2000 R16/1300VP2000D +SHRA BR FEW010 BKN020 BKN025 18/17 Q1006 RMK 1ST010 5CU020 6CU025 A2972
RJFF 240036Z 18008KT 2000 R16/2000N +SHRA BR FEW010 BKN020 BKN030 18/17 Q1006 RMK 1ST010 5CU020 6CU030 A2972 RI++
RJFF 240030Z 15019KT 2000 R16/2000N +SHRA BR FEW010 BKN020 BKN030 18/17 Q1005 RMK 1ST010 5CU020 6CU030 A2970
RJFF 240024Z 14018KT 2000 R16/2000N +SHRA BR FEW010 BKN020 BKN030 18/17 Q1006 RMK 1ST010 5CU020 6CU030 A2971
RJFF 240007Z 15017KT 2500 SHRA BR FEW010 BKN020 BKN030 18/17 Q1005 RMK 1ST010 5CU020 6CU030 A2970
RJFF 240000Z 15015KT 4000 SHRA BR FEW010 SCT020 BKN030 18/17 Q1005 RMK 1ST010 3CU020 6CU030 A2970
RJFF 232330Z 15016KT 9999 -RA FEW015 BKN040 BKN060 18/16 Q1006 RMK 1CU015 5SC040 6SC060 A2971
RJFF 232300Z 15019KT 8000 -RA FEW015 BKN040 BKN070 19/16 Q1006 RMK 1CU015 5SC040 6AC070 A2971
RJFF 232230Z 14020KT 9999 -RA FEW020 BKN045 BKN080 19/16 Q1006 RMK 1CU020 5SC045 6AC080 A2971
RJFF 232200Z 15017KT 9000 -RA FEW020 SCT050 BKN080 19/16 Q1006 RMK 1CU020 3SC050 6AC080 A2971
RJFF 232130Z 15012KT 9999 -RA FEW020 SCT070 BKN100 19/16 Q1006 RMK 1CU020 3AC070 6AC100 A2973
RJFF 232100Z 14011KT 9999 -RA FEW030 SCT050 BKN070 20/16 Q1006 RMK 1CU030 3SC050 6AC070 A2973
RJFF 232035Z AUTO 10007KT 070V130 9999 -RA FEW033 BKN039 BKN047 20/16 Q1006 RMK A2973
RJFF 232030Z AUTO 11007KT 4900 -RA BR BKN039 OVC060 20/16 Q1007 RMK A2974
RJFF 232000Z AUTO 11009KT 9999 -RA SCT038 BKN041 BKN060 20/16 Q1007 RMK A2975
RJFF 231930Z AUTO 10009KT 9999 -RA OVC040 21/16 Q1007 RMK A2975
RJFF 231900Z AUTO 12013KT 9999 OVC040 21/16 Q1007 RMK A2976
RJFF 231830Z AUTO 11011KT 9999 OVC043 21/16 Q1008 RMK A2977
RJFF 231800Z AUTO 12011KT 9999 -RA FEW044 BKN046 OVC090 21/16 Q1008 RMK A2979
RJFF 231730Z AUTO 13011KT 9999 -RA FEW043 SCT050 OVC090 20/16 Q1009 RMK A2979
RJFF 231700Z AUTO 13010KT 9999 -RA FEW043 BKN045 OVC049 21/16 Q1009 RMK A2980
RJFF 231630Z AUTO 12008KT 080V150 9999 OVC046 21/16 Q1009 RMK A2982
RJFF 231600Z AUTO 12008KT 080V150 9999 -RA OVC048 21/16 Q1010 RMK A2984
RJFF 231530Z AUTO 09007KT 060V130 9999 FEW038 OVC048 21/16 Q1010 RMK A2985
RJFF 231500Z AUTO 12009KT 9999 FEW041 BKN050 OVC070 21/16 Q1011 RMK A2986
RJFF 231430Z AUTO 14009KT 9999 FEW048 OVC070 21/17 Q1011 RMK A2987
RJFF 231400Z AUTO 15009KT 9999 -RA FEW047 BKN070 BKN080 21/17 Q1011 RMK A2988
RJFF 231330Z 16008KT 9999 -SHRA FEW010 SCT040 BKN060 20/17 Q1012 RMK 1CU010 4CU040 5SC060 A2989
RJFF 231300Z 16008KT 8000 SHRA FEW010 SCT020 BKN040 20/17 Q1012 RMK 1CU010 3CU020 5CU040 A2990
RJFF 231240Z 16007KT 8000 SHRA FEW010 SCT020 BKN040 21/17 Q1012 RMK 1CU010 3CU020 5CU040 A2990
RJFF 231230Z 16008KT 9000 -RA FEW030 SCT050 BKN070 21/17 Q1012 RMK 1CU030 3SC050 7AC070 A2990
RJFF 231200Z 12005KT 8000 -RA FEW025 SCT050 BKN060 21/17 Q1012 RMK 1CU025 3SC050 7SC060 A2990
RJFF 231130Z 17006KT 9999 -RA FEW040 SCT050 BKN070 21/17 Q1012 RMK 1CU040 4SC050 7AC070 A2989
RJFF 231100Z 17007KT 9999 -RA FEW040 SCT050 BKN080 22/17 Q1012 RMK 1CU040 3SC050 7AC080 A2989
RJFF 231030Z 18006KT 9999 -RA FEW035 SCT080 BKN090 23/16 Q1012 RMK 1CU035 4AC080 7AC090 A2989
RJFF 231000Z 17008KT 9999 FEW035 BKN070 23/16 Q1012 RMK 1CU035 7AC070 A2988
RJFF 230930Z 18006KT 140V210 9999 FEW035 BKN070 24/15 Q1011 RMK 1CU035 7AC070 A2988
RJFF 230900Z 18009KT 140V210 9999 FEW035 SCT045 BKN070 24/15 Q1012 RMK 1CU035 3SC045 7AC070 A2988
RJFF 230830Z 17008KT 150V210 9999 FEW035 BKN045 BKN070 24/15 Q1012 RMK 1CU035 5SC045 7AC070 A2989
RJFF 230800Z 19008KT 9999 FEW035 BKN050 BKN070 24/15 Q1012 RMK 1CU035 5SC050 7AC070 A2989
RJFF 230730Z 18008KT 9999 FEW035 BKN050 BKN070 25/15 Q1012 RMK 1CU035 5SC050 6AC070 A2989
RJFF 230700Z 19008KT 170V240 9999 FEW035 BKN050 BKN070 25/15 Q1012 RMK 1CU035 5SC050 7AC070 A2990
RJFF 230630Z 19013KT 9999 FEW030 BKN050 BKN060 24/15 Q1012 RMK 1CU030 5SC050 6SC060 A2990
RJFF 230600Z 20009KT 170V240 9999 FEW030 SCT040 BKN050 25/15 Q1013 RMK 1CU030 3CU040 5SC050 A2991
RJFF 230530Z 18010KT 140V220 9999 FEW035 SCT040 BKN050 25/15 Q1013 RMK 1CU035 3CU040 5SC050 A2992
RJFF 230500Z 20008KT 160V240 9999 FEW035 SCT040 BKN050 24/15 Q1013 RMK 1CU035 3CU040 5SC050 A2994
RJFF 230430Z 17013KT 9999 FEW035 SCT040 BKN070 24/15 Q1014 RMK 1CU035 3CU040 5AC070 A2994
RJFF 230400Z 17013KT 9999 -SHRA FEW035 SCT040 BKN070 24/15 Q1014 RMK 1CU035 4CU040 6AC070 A2995
RJFF 230330Z 17011KT 130V190 9999 FEW030 SCT040 BKN070 24/15 Q1014 RMK 1CU030 4CU040 6AC070 A2996
RJFF 230300Z 13011KT 110V180 9999 FEW030 BKN060 BKN070 23/15 Q1015 RMK 1CU030 5SC060 6AC070 A2997
RJFF 230230Z 15009KT 9999 FEW030 BKN060 BKN070 23/15 Q1015 RMK 1CU030 5SC060 6AC070 A2999
RJFF 230200Z 13008KT 9999 FEW030 BKN060 BKN070 21/15 Q1016 RMK 1CU030 5SC060 6AC070 A3000
RJFF 230130Z 13007KT 9999 FEW030 BKN060 BKN070 21/15 Q1016 RMK 1CU030 5SC060 6AC070 A3001
RJFF 230100Z 11004KT 070V150 9999 FEW030 BKN060 BKN070 20/15 Q1016 RMK 1CU030 5SC060 6AC070 A3002
RJFF 230030Z VRB02KT 9999 FEW030 BKN060 BKN070 20/15 Q1016 RMK 1CU030 5SC060 6AC070 A3003
RJFF 230000Z 11003KT 060V150 8000 FEW030 BKN070 BKN100 19/15 Q1016 RMK 1CU030 5AC070 7AC100 A3003
RJFF 222330Z VRB02KT 8000 FEW030 BKN070 BKN100 19/15 Q1016 RMK 1CU030 5AC070 7AC100 A3003
RJFF 222300Z VRB01KT 8000 -RA FEW030 BKN070 BKN100 18/15 Q1017 RMK 1CU030 5AC070 7AC100 A3004
RJFF 222230Z VRB02KT 9000 -RA FEW020 BKN070 BKN100 18/15 Q1017 RMK 1CU020 5AC070 7AC100 A3003
RJFF 222200Z VRB02KT 9000 FEW015 BKN070 BKN100 18/15 Q1017 RMK 1CU015 5AC070 7AC100 A3003
RJFF 222130Z 20003KT 150V250 8000 FEW010 SCT015 BKN070 18/15 Q1017 RMK 1CU010 3CU015 7AC070 A3003
RJFF 222100Z VRB01KT 8000 FEW010 BKN015 BKN020 18/14 Q1016 RMK 1CU010 5CU015 7CU020 A3003
RJFF 222030Z AUTO 00000KT 9000 OVC013 18/15 Q1016 RMK A3003
RJFF 222000Z AUTO VRB01KT 9999 OVC013 18/14 Q1016 RMK A3003
RJFF 221930Z AUTO 34002KT 9999 OVC012 18/14 Q1016 RMK A3003
RJFF 221900Z AUTO 33004KT 9999 OVC012 18/14 Q1016 RMK A3003
RJFF 221830Z AUTO 33003KT 290V010 8000 OVC011 18/15 Q1016 RMK A3003
RJFF 221800Z AUTO VRB01KT 9000 OVC011 18/15 Q1017 RMK A3003
RJFF 221730Z AUTO VRB02KT 9999 BKN012 OVC015 18/15 Q1017 RMK A3004
RJFF 221700Z AUTO VRB02KT 9000 FEW012 OVC015 18/14 Q1017 RMK A3005
RJFF 221630Z AUTO VRB03KT 9999 BKN011 BKN015 OVC019 18/14 Q1017 RMK A3005
RJFF 221600Z AUTO 29003KT 240V340 9999 OVC012 18/15 Q1017 RMK A3005
RJFF 221530Z AUTO 28005KT 9999 OVC012 18/14 Q1018 RMK A3006
RJFF 221500Z AUTO 27006KT 9999 BKN011 OVC015 18/15 Q1018 RMK A3006
RJFF 221430Z AUTO 31004KT 270V330 9999 FEW011 BKN015 17/15 Q1017 RMK A3005
RJFF 221400Z AUTO 28005KT 240V320 9999 NCD 17/15 Q1017 RMK A3006
RJFF 221330Z 26007KT CAVOK 18/15 Q1017 RMK A3006
RJFF 221300Z 26005KT CAVOK 18/15 Q1017 RMK A3006
RJFF 221230Z VRB04KT CAVOK 19/15 Q1017 RMK A3005
RJFF 221200Z 32003KT CAVOK 19/14 Q1017 RMK 5AC080 A3004
RJFF 221130Z 36006KT 330V080 CAVOK 20/15 Q1017 RMK A3004
RJFF 221100Z 33008KT CAVOK 21/14 Q1017 RMK A3003
RJFF 221030Z VRB01KT CAVOK 21/14 Q1016 RMK A3002
RJFF 221000Z 18004KT 120V200 CAVOK 22/14 Q1016 RMK A3002
RJFF 220930Z 21004KT 150V270 CAVOK 22/14 Q1016 RMK 5AC080 A3001
RJFF 220900Z 21005KT 160V280 9999 FEW040 SCT/// 24/14 Q1016
RJFF 220830Z 31009KT 280V360 9999 FEW040 25/13 Q1016 RMK 1CU040 A3000
RJFF 220800Z 33011KT 9999 FEW035 26/14 Q1016 RMK 1CU035 A3000
RJFF 220730Z 32012KT 290V350 9999 FEW035 27/14 Q1016 RMK 1CU035 A3000
RJFF 220700Z 33011KT 9999 FEW035 26/15 Q1016 RMK 1CU035 A3000
RJFF 220630Z 32010KT 9999 FEW035 SCT050 26/14 Q1016 RMK 1CU035 3SC050 A3001
RJFF 220600Z 32012KT 9999 FEW035 SCT050 27/15 Q1016 RMK 1CU035 3SC050 A3001
RJFF 220530Z 33012KT 9999 FEW035 26/15 Q1016 RMK 1CU035 A3003
RJFF 220500Z 33012KT 9999 FEW030 26/15 Q1017 RMK 1CU030 A3003
RJFF 220430Z 33010KT 9999 FEW030 26/15 Q1017 RMK 1CU030 A3004